Time;durP1;ratioP1;P1;durP2;ratioP2;P2;SDS_P1;SDS_P2;PMS_P1;PMS_P2;Temp;Humidity;BMP_temperature;BMP_pressure;BME280_temperature;BME280_humidity;BME280_pressure;Samples;Min_cycle;Max_cycle;Signal;HPM_P1;HPM_P2
2022/04/05 00:01:35;;;;;;;7.05;6.45;;;;;;;;;;5026730;28;20242;-81
2022/04/05 00:04:02;;;;;;;5.82;5.32;;;;;;;;;;5027107;28;20223;-81
2022/04/05 00:06:30;;;;;;;6.40;5.90;;;;;;;;;;5026900;28;20226;-80
2022/04/05 00:08:57;;;;;;;5.45;5.05;;;;;;;;;;5031628;28;20261;-80
2022/04/05 00:11:24;;;;;;;7.07;6.47;;;;;;;;;;5030583;28;20195;-81
2022/04/05 00:13:51;;;;;;;6.47;5.88;;;;;;;;;;5025377;28;20216;-80
2022/04/05 00:16:18;;;;;;;6.00;5.45;;;;;;;;;;5024302;28;20191;-82
2022/04/05 00:18:45;;;;;;;5.60;5.20;;;;;;;;;;5030479;28;20206;-79
2022/04/05 00:21:13;;;;;;;5.38;4.97;;;;;;;;;;5028195;28;20191;-80
2022/04/05 00:23:41;;;;;;;5.72;5.15;;;;;;;;;;5030011;28;20224;-79
2022/04/05 00:26:08;;;;;;;5.10;4.70;;;;;;;;;;5023916;28;20581;-79
2022/04/05 00:28:35;;;;;;;6.70;6.10;;;;;;;;;;5021730;28;20202;-80
2022/04/05 00:31:02;;;;;;;5.50;5.00;;;;;;;;;;5027490;28;20218;-79
2022/04/05 00:33:29;;;;;;;5.20;4.70;;;;;;;;;;5022940;28;20196;-80
2022/04/05 00:35:56;;;;;;;6.35;5.75;;;;;;;;;;5022447;28;20289;-80
2022/04/05 00:38:24;;;;;;;5.93;5.43;;;;;;;;;;5029171;28;20197;-80
2022/04/05 00:40:52;;;;;;;4.40;4.00;;;;;;;;;;5028412;28;20323;-80
2022/04/05 00:43:19;;;;;;;4.80;4.40;;;;;;;;;;5028362;28;20249;-79
2022/04/05 00:45:46;;;;;;;4.90;4.50;;;;;;;;;;5017747;28;20196;-79
2022/04/05 00:48:14;;;;;;;4.63;4.22;;;;;;;;;;5031058;28;20202;-79
2022/04/05 00:50:41;;;;;;;4.65;4.25;;;;;;;;;;5028829;28;20234;-80
2022/04/05 00:53:09;;;;;;;4.88;4.47;;;;;;;;;;5031697;28;20219;-80
2022/04/05 00:55:36;;;;;;;4.85;4.45;;;;;;;;;;5026340;28;20199;-80
2022/04/05 00:58:06;;;;;;;4.18;3.88;;;;;;;;;;5023315;28;20559;-80
2022/04/05 01:00:34;;;;;;;4.63;4.22;;;;;;;;;;5028961;28;20198;-79
2022/04/05 01:03:01;;;;;;;4.45;4.10;;;;;;;;;;5027839;28;20232;-80
2022/04/05 01:05:28;;;;;;;3.80;3.50;;;;;;;;;;5028361;28;20682;-79
2022/04/05 01:07:56;;;;;;;3.13;2.90;;;;;;;;;;5028931;28;20191;-80
2022/04/05 01:10:23;;;;;;;3.95;3.65;;;;;;;;;;5029358;28;20192;-80
2022/04/05 01:12:50;;;;;;;2.38;2.17;;;;;;;;;;5022367;28;20203;-80
2022/04/05 01:15:18;;;;;;;3.90;3.60;;;;;;;;;;5028233;28;20571;-79
2022/04/05 01:17:45;;;;;;;3.13;2.90;;;;;;;;;;5026158;28;20195;-81
2022/04/05 01:20:12;;;;;;;3.60;3.30;;;;;;;;;;5024986;28;20270;-81
2022/04/05 01:22:46;;;;;;;3.47;3.25;;;;;;;;;;5028868;28;20222;-81
2022/04/05 01:25:15;;;;;;;3.67;2.90;;;;;;;;;;5024466;28;20584;-81
2022/04/05 01:27:42;;;;;;;2.90;2.70;;;;;;;;;;5027512;28;20214;-81
2022/04/05 01:30:10;;;;;;;3.35;3.15;;;;;;;;;;5030318;28;20199;-79
2022/04/05 01:32:37;;;;;;;2.95;2.67;;;;;;;;;;5034129;28;20196;-79
2022/04/05 01:35:05;;;;;;;2.85;2.65;;;;;;;;;;5023014;28;20685;-79
2022/04/05 01:37:33;;;;;;;2.75;2.55;;;;;;;;;;5026527;28;20191;-79
2022/04/05 01:40:01;;;;;;;2.85;2.65;;;;;;;;;;5031487;28;20343;-79
2022/04/05 01:42:29;;;;;;;3.15;2.85;;;;;;;;;;5032292;28;20192;-79
2022/04/05 01:44:57;;;;;;;2.10;2.00;;;;;;;;;;5024974;28;20206;-78
2022/04/05 01:47:24;;;;;;;2.60;2.40;;;;;;;;;;5028391;28;20195;-79
2022/04/05 01:49:51;;;;;;;2.50;2.30;;;;;;;;;;5032337;28;20195;-79
2022/04/05 01:52:18;;;;;;;2.10;1.90;;;;;;;;;;5035062;28;20288;-78
2022/04/05 01:54:46;;;;;;;1.98;1.88;;;;;;;;;;5028547;28;20206;-78
2022/04/05 01:57:15;;;;;;;2.10;2.00;;;;;;;;;;5029946;28;20664;-79
2022/04/05 01:59:45;;;;;;;3.15;2.65;;;;;;;;;;5030142;28;20200;-81
2022/04/05 02:02:12;;;;;;;2.25;2.05;;;;;;;;;;5030818;28;20195;-81
2022/04/05 02:04:42;;;;;;;2.25;2.00;;;;;;;;;;5028087;28;20230;-81
2022/04/05 02:07:10;;;;;;;5.07;2.30;;;;;;;;;;5030550;28;20196;-79
2022/04/05 02:09:37;;;;;;;2.10;2.00;;;;;;;;;;5033064;28;20238;-78
2022/04/05 02:12:09;;;;;;;2.47;2.28;;;;;;;;;;5033468;28;20204;-79
2022/04/05 02:14:36;;;;;;;2.03;1.90;;;;;;;;;;5026244;28;20210;-79
2022/04/05 02:17:05;;;;;;;2.00;1.90;;;;;;;;;;5029999;28;20569;-78
2022/04/05 02:19:32;;;;;;;1.90;1.75;;;;;;;;;;5021638;28;20196;-79
2022/04/05 02:21:59;;;;;;;2.05;1.95;;;;;;;;;;5023265;28;20203;-79
2022/04/05 02:24:26;;;;;;;2.45;2.25;;;;;;;;;;5030662;28;20273;-77
2022/04/05 02:26:53;;;;;;;1.67;1.58;;;;;;;;;;5027436;28;20211;-80
2022/04/05 02:29:20;;;;;;;2.20;1.90;;;;;;;;;;5028021;28;20204;-79
2022/04/05 02:31:48;;;;;;;1.70;1.60;;;;;;;;;;5027954;28;20215;-83
2022/04/05 02:34:16;;;;;;;4.43;1.50;;;;;;;;;;5030439;28;20203;-80
2022/04/05 02:36:43;;;;;;;2.28;1.60;;;;;;;;;;5025749;28;20192;-80
2022/04/05 02:39:11;;;;;;;1.80;1.70;;;;;;;;;;5025827;28;20291;-82
2022/04/05 02:41:38;;;;;;;1.77;1.63;;;;;;;;;;5033993;28;20210;-83
2022/04/05 02:44:06;;;;;;;1.75;1.65;;;;;;;;;;5029019;28;20247;-81
2022/04/05 02:46:33;;;;;;;1.75;1.65;;;;;;;;;;5033311;28;20198;-82
2022/04/05 02:49:00;;;;;;;1.83;1.70;;;;;;;;;;5027807;28;20591;-82
2022/04/05 02:51:29;;;;;;;1.60;1.50;;;;;;;;;;5030637;28;20199;-82
2022/04/05 02:53:56;;;;;;;1.67;1.58;;;;;;;;;;5030667;28;20223;-81
2022/04/05 02:56:23;;;;;;;2.33;2.15;;;;;;;;;;5024392;28;20199;-82
2022/04/05 02:58:50;;;;;;;1.60;1.50;;;;;;;;;;5025097;28;20294;-80
2022/04/05 03:01:18;;;;;;;1.38;1.27;;;;;;;;;;5028097;28;20207;-79
2022/04/05 03:03:45;;;;;;;1.80;1.70;;;;;;;;;;5027332;28;20585;-79
2022/04/05 03:06:14;;;;;;;1.98;1.88;;;;;;;;;;5024429;28;20195;-80
2022/04/05 03:08:43;;;;;;;1.88;1.70;;;;;;;;;;5031797;28;20188;-81
2022/04/05 03:11:11;;;;;;;1.60;1.40;;;;;;;;;;5031560;28;20261;-78
2022/04/05 03:13:39;;;;;;;1.90;1.58;;;;;;;;;;5025875;28;20200;-80
2022/04/05 03:16:09;;;;;;;1.75;1.65;;;;;;;;;;5025056;28;20192;-78
2022/04/05 03:18:36;;;;;;;1.67;1.50;;;;;;;;;;5030004;28;20187;-81
2022/04/05 03:21:03;;;;;;;2.33;1.45;;;;;;;;;;5030125;28;20218;-80
2022/04/05 03:23:30;;;;;;;1.48;1.30;;;;;;;;;;5028934;28;20219;-80
2022/04/05 03:25:58;;;;;;;1.60;1.50;;;;;;;;;;5027172;28;20214;-80
2022/04/05 03:28:25;;;;;;;1.88;1.77;;;;;;;;;;5029513;28;20199;-80
2022/04/05 03:30:52;;;;;;;1.55;1.45;;;;;;;;;;5026737;28;20200;-81
2022/04/05 03:33:19;;;;;;;1.50;1.40;;;;;;;;;;5022931;28;20200;-79
2022/04/05 03:35:47;;;;;;;1.55;1.45;;;;;;;;;;5025229;28;20226;-79
2022/04/05 03:38:14;;;;;;;1.40;1.30;;;;;;;;;;5029899;28;20196;-79
2022/04/05 03:40:41;;;;;;;1.20;1.10;;;;;;;;;;5030860;28;20211;-78
2022/04/05 03:43:12;;;;;;;1.40;1.30;;;;;;;;;;5030679;28;20191;-80
2022/04/05 03:45:39;;;;;;;1.55;1.35;;;;;;;;;;5027455;28;20199;-79
2022/04/05 03:48:06;;;;;;;2.00;1.60;;;;;;;;;;5025582;28;20199;-80
2022/04/05 03:50:34;;;;;;;1.85;1.20;;;;;;;;;;5027859;28;20191;-78
2022/04/05 03:53:01;;;;;;;1.60;1.50;;;;;;;;;;5030875;28;20287;-77
2022/04/05 03:55:28;;;;;;;1.20;1.10;;;;;;;;;;5028327;28;20188;-81
2022/04/05 03:57:55;;;;;;;1.50;1.33;;;;;;;;;;5018217;28;20200;-79
2022/04/05 04:00:23;;;;;;;1.60;1.13;;;;;;;;;;5015617;28;20199;-78
2022/04/05 04:02:50;;;;;;;1.33;1.20;;;;;;;;;;5028074;28;20203;-79
2022/04/05 04:05:20;;;;;;;1.30;1.15;;;;;;;;;;5029836;28;20561;-80
2022/04/05 04:07:48;;;;;;;1.23;1.13;;;;;;;;;;5028243;28;20254;-79
2022/04/05 04:10:16;;;;;;;1.10;1.00;;;;;;;;;;5015385;28;20254;-79
2022/04/05 04:12:43;;;;;;;1.30;1.15;;;;;;;;;;5031278;28;20195;-78
2022/04/05 04:15:11;;;;;;;2.92;1.75;;;;;;;;;;5019381;28;20288;-80
2022/04/05 04:17:39;;;;;;;1.70;1.50;;;;;;;;;;5027399;28;20196;-80
2022/04/05 04:20:07;;;;;;;1.45;1.35;;;;;;;;;;5026292;28;20204;-80
2022/04/05 04:22:34;;;;;;;1.30;1.20;;;;;;;;;;5025155;28;20203;-80
2022/04/05 04:25:01;;;;;;;1.70;1.60;;;;;;;;;;5026231;28;20223;-80
2022/04/05 04:27:28;;;;;;;1.25;1.15;;;;;;;;;;5026106;28;20495;-79
2022/04/05 04:29:55;;;;;;;1.30;1.20;;;;;;;;;;5026586;28;20195;-80
2022/04/05 04:32:22;;;;;;;1.30;1.20;;;;;;;;;;5028044;28;20445;-80
2022/04/05 04:34:50;;;;;;;1.35;1.25;;;;;;;;;;5027400;28;20191;-78
2022/04/05 04:37:18;;;;;;;1.33;1.23;;;;;;;;;;5027351;28;20674;-80
2022/04/05 04:39:45;;;;;;;2.95;1.23;;;;;;;;;;5029959;28;20202;-79
2022/04/05 04:42:12;;;;;;;1.33;1.10;;;;;;;;;;5029716;28;20199;-80
2022/04/05 04:44:39;;;;;;;1.50;1.40;;;;;;;;;;5027563;28;20246;-78
2022/04/05 04:47:07;;;;;;;1.30;1.20;;;;;;;;;;5022396;28;20207;-78
2022/04/05 04:49:34;;;;;;;1.95;1.40;;;;;;;;;;5021261;28;20697;-80
2022/04/05 04:52:03;;;;;;;2.22;1.30;;;;;;;;;;5034340;28;20210;-80
2022/04/05 04:54:30;;;;;;;1.45;1.35;;;;;;;;;;5032434;28;20261;-80
2022/04/05 04:56:57;;;;;;;1.30;1.20;;;;;;;;;;5027346;28;20202;-78
2022/04/05 04:59:24;;;;;;;1.60;1.25;;;;;;;;;;5026364;28;20226;-79
2022/04/05 05:01:51;;;;;;;1.20;1.00;;;;;;;;;;5025602;28;20613;-77
2022/04/05 05:04:18;;;;;;;1.23;1.13;;;;;;;;;;5029942;28;20214;-79
2022/04/05 05:06:45;;;;;;;1.88;1.30;;;;;;;;;;5028981;28;20263;-79
2022/04/05 05:09:14;;;;;;;1.38;1.27;;;;;;;;;;5024545;28;20188;-79
2022/04/05 05:11:41;;;;;;;1.15;1.05;;;;;;;;;;5024636;28;20210;-79
2022/04/05 05:14:08;;;;;;;1.60;1.50;;;;;;;;;;5025796;28;20207;-79
2022/04/05 05:16:36;;;;;;;2.22;1.38;;;;;;;;;;5026120;28;20195;-79
2022/04/05 05:19:04;;;;;;;1.40;1.30;;;;;;;;;;5028870;28;20650;-80
2022/04/05 05:21:32;;;;;;;1.27;1.10;;;;;;;;;;5015901;28;20200;-78
2022/04/05 05:23:59;;;;;;;1.55;1.38;;;;;;;;;;5012019;28;20231;-84
2022/04/05 05:26:27;;;;;;;1.40;1.30;;;;;;;;;;5018248;28;20206;-82
2022/04/05 05:28:54;;;;;;;1.27;1.17;;;;;;;;;;5027509;28;20660;-83
2022/04/05 05:31:21;;;;;;;1.20;1.10;;;;;;;;;;5028383;28;20215;-81
2022/04/05 05:33:48;;;;;;;1.20;1.10;;;;;;;;;;5031766;28;20191;-80
2022/04/05 05:36:15;;;;;;;1.10;1.00;;;;;;;;;;5030955;28;20202;-80
2022/04/05 05:38:42;;;;;;;1.50;1.40;;;;;;;;;;5027982;28;20218;-80
2022/04/05 05:41:09;;;;;;;1.30;1.20;;;;;;;;;;5014370;28;20204;-81
2022/04/05 05:43:38;;;;;;;1.20;1.10;;;;;;;;;;5023337;28;20200;-81
2022/04/05 05:46:06;;;;;;;1.13;1.02;;;;;;;;;;5028880;28;20231;-80
2022/04/05 05:48:34;;;;;;;1.17;0.90;;;;;;;;;;5024511;28;20191;-81
2022/04/05 05:51:01;;;;;;;1.20;1.10;;;;;;;;;;5025775;28;20209;-82
2022/04/05 05:53:28;;;;;;;1.08;0.98;;;;;;;;;;5025710;28;20196;-81
2022/04/05 05:55:55;;;;;;;1.20;1.10;;;;;;;;;;5026277;28;20207;-79
2022/04/05 05:58:22;;;;;;;1.42;1.33;;;;;;;;;;5030477;28;20192;-78
2022/04/05 06:00:51;;;;;;;1.45;0.93;;;;;;;;;;5028363;28;20227;-80
2022/04/05 06:03:18;;;;;;;3.45;1.15;;;;;;;;;;5027858;28;20575;-79
2022/04/05 06:05:46;;;;;;;2.45;1.05;;;;;;;;;;5023960;28;20216;-79
2022/04/05 06:08:14;;;;;;;1.25;1.05;;;;;;;;;;5028982;28;20219;-79
2022/04/05 06:10:41;;;;;;;0.98;0.88;;;;;;;;;;5027725;28;20196;-79
2022/04/05 06:13:08;;;;;;;1.35;1.25;;;;;;;;;;5018901;28;20611;-76
2022/04/05 06:15:35;;;;;;;1.20;1.00;;;;;;;;;;5032801;28;20246;-76
2022/04/05 06:18:04;;;;;;;1.20;1.10;;;;;;;;;;5029215;28;20964;-76
2022/04/05 06:20:31;;;;;;;1.10;1.00;;;;;;;;;;5032313;28;20202;-76
2022/04/05 06:22:59;;;;;;;1.23;1.10;;;;;;;;;;5034414;28;20195;-76
2022/04/05 06:25:27;;;;;;;1.20;1.10;;;;;;;;;;5032884;28;20227;-77
2022/04/05 06:27:54;;;;;;;1.70;1.15;;;;;;;;;;5029030;28;20283;-77
2022/04/05 06:30:21;;;;;;;1.20;0.93;;;;;;;;;;5026087;28;20207;-76
2022/04/05 06:32:48;;;;;;;1.02;0.93;;;;;;;;;;5032927;28;20398;-76
2022/04/05 06:35:17;;;;;;;1.08;0.98;;;;;;;;;;5026410;28;20199;-76
2022/04/05 06:37:44;;;;;;;1.00;0.90;;;;;;;;;;5031673;28;20224;-76
2022/04/05 06:40:12;;;;;;;1.60;1.10;;;;;;;;;;5033699;28;20214;-77
2022/04/05 06:42:43;;;;;;;1.25;1.15;;;;;;;;;;5032243;28;20192;-77
2022/04/05 06:45:10;;;;;;;1.00;0.90;;;;;;;;;;5032647;28;20215;-76
2022/04/05 06:47:38;;;;;;;1.20;0.90;;;;;;;;;;5022964;28;20188;-76
2022/04/05 06:50:07;;;;;;;1.10;0.90;;;;;;;;;;5025503;28;20195;-76
2022/04/05 06:52:35;;;;;;;1.23;1.13;;;;;;;;;;5032287;28;20184;-77
2022/04/05 06:55:03;;;;;;;1.10;0.98;;;;;;;;;;5029313;28;20223;-77
2022/04/05 06:57:30;;;;;;;1.10;0.93;;;;;;;;;;5027128;28;20226;-76
2022/04/05 06:59:57;;;;;;;1.10;1.00;;;;;;;;;;5015577;28;20202;-76
2022/04/05 07:02:24;;;;;;;1.10;1.00;;;;;;;;;;5031002;28;20202;-76
2022/04/05 07:04:51;;;;;;;1.02;0.93;;;;;;;;;;5024816;28;20285;-75
2022/04/05 07:07:19;;;;;;;1.02;0.90;;;;;;;;;;5029711;28;20208;-74
2022/04/05 07:09:47;;;;;;;2.85;1.55;;;;;;;;;;5020300;28;20245;-74
2022/04/05 07:12:14;;;;;;;1.50;1.20;;;;;;;;;;5026325;28;20574;-75
2022/04/05 07:14:41;;;;;;;1.20;0.90;;;;;;;;;;5027292;28;20204;-74
2022/04/05 07:17:08;;;;;;;1.00;0.90;;;;;;;;;;5024020;28;20207;-75
2022/04/05 07:19:35;;;;;;;1.20;1.10;;;;;;;;;;5027365;28;20195;-75
2022/04/05 07:22:03;;;;;;;1.10;1.00;;;;;;;;;;5027881;28;20222;-74
2022/04/05 07:24:30;;;;;;;1.10;1.00;;;;;;;;;;5029143;28;20223;-73
2022/04/05 07:26:59;;;;;;;1.00;0.90;;;;;;;;;;5021678;28;20310;-74
2022/04/05 07:29:26;;;;;;;1.10;1.00;;;;;;;;;;5025860;28;20203;-74
2022/04/05 07:31:53;;;;;;;1.20;1.10;;;;;;;;;;5021714;28;20599;-76
2022/04/05 07:34:20;;;;;;;1.55;1.02;;;;;;;;;;5017998;28;20203;-75
2022/04/05 07:36:47;;;;;;;1.17;1.00;;;;;;;;;;5027858;28;20199;-75
2022/04/05 07:39:14;;;;;;;1.10;1.00;;;;;;;;;;5029292;28;20654;-74
2022/04/05 07:41:41;;;;;;;0.90;0.80;;;;;;;;;;5028414;28;20198;-74
2022/04/05 07:44:09;;;;;;;1.38;1.27;;;;;;;;;;5027102;28;20198;-74
2022/04/05 07:46:37;;;;;;;1.30;0.90;;;;;;;;;;5022932;28;20215;-75
2022/04/05 07:49:04;;;;;;;0.90;0.80;;;;;;;;;;5023232;28;20206;-75
2022/04/05 07:51:31;;;;;;;1.27;1.00;;;;;;;;;;5030492;28;20567;-75
2022/04/05 07:53:58;;;;;;;1.42;1.33;;;;;;;;;;5026523;28;20202;-74
2022/04/05 07:56:25;;;;;;;1.02;0.90;;;;;;;;;;5027724;28;20967;-75
2022/04/05 07:58:52;;;;;;;1.38;1.00;;;;;;;;;;5026490;28;20681;-75
2022/04/05 08:01:20;;;;;;;1.30;1.20;;;;;;;;;;5026418;28;20208;-74
2022/04/05 08:03:47;;;;;;;1.98;1.17;;;;;;;;;;5022056;28;20191;-76
2022/04/05 08:06:15;;;;;;;1.83;1.10;;;;;;;;;;5025555;28;20222;-75
2022/04/05 08:08:42;;;;;;;1.30;1.20;;;;;;;;;;5030234;28;20203;-75
2022/04/05 08:11:09;;;;;;;1.25;1.02;;;;;;;;;;5030682;28;20195;-75
2022/04/05 08:13:36;;;;;;;1.50;1.10;;;;;;;;;;5024696;28;20198;-75
2022/04/05 08:16:03;;;;;;;1.20;1.10;;;;;;;;;;5028415;28;20196;-75
2022/04/05 08:18:31;;;;;;;1.38;1.27;;;;;;;;;;5023704;28;20662;-76
2022/04/05 08:20:58;;;;;;;1.60;0.95;;;;;;;;;;5020337;28;20663;-75
2022/04/05 08:23:26;;;;;;;1.50;1.33;;;;;;;;;;5025688;28;20192;-75
2022/04/05 08:25:53;;;;;;;1.40;1.30;;;;;;;;;;5022008;28;20230;-75
2022/04/05 08:28:20;;;;;;;1.65;1.20;;;;;;;;;;5022860;28;20191;-76
2022/04/05 08:30:47;;;;;;;1.38;1.20;;;;;;;;;;5029990;28;20203;-75
2022/04/05 08:33:14;;;;;;;1.48;1.27;;;;;;;;;;5026639;28;20203;-76
2022/04/05 08:35:43;;;;;;;1.40;1.30;;;;;;;;;;5029139;28;20202;-75
2022/04/05 08:38:10;;;;;;;1.55;1.20;;;;;;;;;;5028381;28;20737;-76
2022/04/05 08:40:37;;;;;;;1.77;1.45;;;;;;;;;;5031676;28;20191;-75
2022/04/05 08:43:04;;;;;;;1.40;1.30;;;;;;;;;;5017338;28;20207;-76
2022/04/05 08:45:31;;;;;;;1.63;1.20;;;;;;;;;;5025858;28;20222;-75
2022/04/05 08:48:00;;;;;;;1.50;1.40;;;;;;;;;;5024833;28;20202;-75
2022/04/05 08:50:28;;;;;;;1.30;1.20;;;;;;;;;;5029329;28;20202;-75
2022/04/05 08:52:59;;;;;;;1.40;1.20;;;;;;;;;;5027785;28;20200;-75
2022/04/05 08:55:26;;;;;;;1.45;1.35;;;;;;;;;;5028715;28;20211;-75
2022/04/05 08:57:54;;;;;;;1.40;1.30;;;;;;;;;;5021865;28;20195;-74
2022/04/05 09:00:22;;;;;;;1.50;1.33;;;;;;;;;;5022972;28;20210;-75
2022/04/05 09:02:54;;;;;;;1.65;1.55;;;;;;;;;;5027004;28;20199;-75
2022/04/05 09:05:28;;;;;;;2.10;1.55;;;;;;;;;;5025257;28;20307;-75
2022/04/05 09:08:11;;;;;;;2.20;1.83;;;;;;;;;;5024876;28;20256;-75
2022/04/05 09:10:39;;;;;;;2.03;1.63;;;;;;;;;;5023064;28;20199;-75
2022/04/05 09:13:06;;;;;;;1.77;1.45;;;;;;;;;;5019184;28;20249;-75
2022/04/05 09:15:34;;;;;;;1.83;1.73;;;;;;;;;;5023691;28;20192;-76
2022/04/05 09:18:01;;;;;;;1.75;1.65;;;;;;;;;;5022140;28;20200;-75
2022/04/05 09:20:28;;;;;;;2.03;1.90;;;;;;;;;;5023862;28;20558;-75
2022/04/05 09:23:01;;;;;;;1.85;1.75;;;;;;;;;;5027611;28;20199;-75
2022/04/05 09:25:28;;;;;;;1.67;1.50;;;;;;;;;;5022816;28;20223;-75
2022/04/05 09:27:56;;;;;;;2.92;1.70;;;;;;;;;;5017418;28;20200;-76
2022/04/05 09:30:24;;;;;;;1.90;1.70;;;;;;;;;;5024633;28;20199;-75
2022/04/05 09:32:53;;;;;;;2.17;1.73;;;;;;;;;;5024302;28;20685;-75
2022/04/05 09:35:21;;;;;;;2.85;2.50;;;;;;;;;;5018317;28;20667;-77
2022/04/05 09:37:48;;;;;;;2.03;1.92;;;;;;;;;;5027344;28;20199;-77
2022/04/05 09:40:18;;;;;;;1.98;1.83;;;;;;;;;;5033729;28;20203;-78
2022/04/05 09:43:02;;;;;;;2.25;2.05;;;;;;;;;;5026083;28;20196;-75
2022/04/05 09:45:47;;;;;;;2.50;2.10;;;;;;;;;;5022644;28;20244;-76
2022/04/05 09:48:15;;;;;;;2.63;2.42;;;;;;;;;;5018930;28;20200;-73
2022/04/05 09:50:57;;;;;;;3.13;2.20;;;;;;;;;;5032806;28;20587;-76
2022/04/05 09:53:24;;;;;;;2.30;2.10;;;;;;;;;;5024629;28;20218;-75
2022/04/05 09:56:02;;;;;;;2.10;1.90;;;;;;;;;;5025305;28;20215;-74
2022/04/05 09:58:29;;;;;;;2.42;2.20;;;;;;;;;;5022607;28;20196;-75
2022/04/05 10:01:06;;;;;;;2.75;2.38;;;;;;;;;;5029139;28;20206;-76
2022/04/05 10:03:33;;;;;;;2.40;2.20;;;;;;;;;;5021179;28;20200;-77
2022/04/05 10:06:01;;;;;;;3.08;2.78;;;;;;;;;;5028765;28;20254;-77
2022/04/05 10:08:28;;;;;;;3.17;2.40;;;;;;;;;;5028101;28;20203;-78
2022/04/05 10:10:57;;;;;;;3.40;3.10;;;;;;;;;;5028361;28;20191;-77
2022/04/05 10:13:24;;;;;;;2.80;2.60;;;;;;;;;;5023716;28;20666;-78
2022/04/05 10:15:53;;;;;;;2.50;2.28;;;;;;;;;;5028750;28;20215;-78
2022/04/05 10:18:21;;;;;;;2.95;2.72;;;;;;;;;;5013726;28;20567;-76
2022/04/05 10:20:49;;;;;;;3.10;2.83;;;;;;;;;;5022689;28;20195;-77
2022/04/05 10:23:17;;;;;;;3.00;2.72;;;;;;;;;;5029880;28;20246;-77
2022/04/05 10:25:44;;;;;;;3.10;2.80;;;;;;;;;;5029844;28;20630;-77
2022/04/05 10:28:15;;;;;;;4.05;2.85;;;;;;;;;;5027180;28;20195;-76
2022/04/05 10:30:44;;;;;;;3.55;3.03;;;;;;;;;;5027052;28;20254;-76
2022/04/05 10:33:14;;;;;;;3.63;3.33;;;;;;;;;;5032616;28;20678;-77
2022/04/05 10:35:43;;;;;;;2.97;2.75;;;;;;;;;;5027153;28;20203;-77
2022/04/05 10:38:13;;;;;;;3.10;2.55;;;;;;;;;;5027236;28;20497;-77
2022/04/05 10:40:40;;;;;;;3.05;2.85;;;;;;;;;;5025019;28;20199;-77
2022/04/05 10:43:19;;;;;;;3.17;2.90;;;;;;;;;;5029581;28;20577;-76
2022/04/05 10:45:48;;;;;;;3.05;2.70;;;;;;;;;;5030507;28;20226;-77
2022/04/05 10:48:17;;;;;;;3.33;3.03;;;;;;;;;;5025682;28;20199;-76
2022/04/05 10:50:45;;;;;;;3.10;2.80;;;;;;;;;;5028641;28;20196;-77
2022/04/05 10:53:14;;;;;;;3.40;3.20;;;;;;;;;;5029566;28;20573;-77
2022/04/05 10:55:58;;;;;;;2.80;2.60;;;;;;;;;;5030135;28;20681;-74
2022/04/05 10:58:27;;;;;;;3.03;2.83;;;;;;;;;;5028053;28;20696;-74
2022/04/05 11:01:13;;;;;;;2.67;2.47;;;;;;;;;;5029190;28;20207;-74
2022/04/05 11:03:40;;;;;;;3.53;3.22;;;;;;;;;;5029878;28;20573;-74
2022/04/05 11:06:07;;;;;;;2.92;2.60;;;;;;;;;;5028673;28;20218;-73
2022/04/05 11:08:37;;;;;;;2.97;2.67;;;;;;;;;;5026624;28;20195;-74
2022/04/05 11:14:09;;;;;;;3.20;2.95;;;;;;;;;;5017077;28;21115;-74
2022/04/05 11:16:39;;;;;;;2.83;2.63;;;;;;;;;;5026448;28;20200;-73
2022/04/05 11:19:06;;;;;;;3.35;3.05;;;;;;;;;;5028727;28;20196;-73
2022/04/05 11:21:33;;;;;;;5.20;2.33;;;;;;;;;;5026280;28;20913;-74
2022/04/05 11:24:00;;;;;;;2.90;2.70;;;;;;;;;;5022072;28;20586;-75
2022/04/05 11:26:28;;;;;;;4.53;4.13;;;;;;;;;;5026202;28;20223;-76
2022/04/05 11:28:59;;;;;;;2.50;2.30;;;;;;;;;;5020736;28;20204;-76
2022/04/05 11:31:31;;;;;;;4.30;2.67;;;;;;;;;;5023978;28;20306;-75
2022/04/05 11:33:58;;;;;;;3.63;3.30;;;;;;;;;;5024204;28;20210;-78
2022/04/05 11:36:26;;;;;;;3.60;2.95;;;;;;;;;;5018264;28;20207;-76
2022/04/05 11:38:56;;;;;;;2.58;2.38;;;;;;;;;;5029120;28;20203;-77
2022/04/05 11:41:24;;;;;;;2.72;2.53;;;;;;;;;;5028835;28;20257;-76
2022/04/05 11:43:52;;;;;;;2.80;2.60;;;;;;;;;;5023882;28;20200;-76
2022/04/05 11:46:21;;;;;;;3.15;2.45;;;;;;;;;;5026480;28;20599;-76
2022/04/05 11:48:50;;;;;;;3.22;2.88;;;;;;;;;;5019438;28;20196;-76
2022/04/05 11:51:18;;;;;;;3.10;2.83;;;;;;;;;;5025714;28;20218;-76
2022/04/05 11:53:46;;;;;;;3.97;3.47;;;;;;;;;;5021095;28;20646;-77
2022/04/05 11:56:14;;;;;;;4.20;3.85;;;;;;;;;;5028465;28;20203;-75
2022/04/05 11:58:42;;;;;;;3.28;3.08;;;;;;;;;;5017831;28;20208;-76
2022/04/05 12:01:11;;;;;;;3.25;3.05;;;;;;;;;;5017390;28;20286;-76
2022/04/05 12:03:41;;;;;;;2.97;2.45;;;;;;;;;;5025802;28;20210;-77
2022/04/05 12:06:10;;;;;;;2.90;2.50;;;;;;;;;;5022924;28;20308;-75
2022/04/05 12:08:37;;;;;;;4.88;3.75;;;;;;;;;;5029935;28;20195;-73
2022/04/05 12:11:05;;;;;;;3.00;2.80;;;;;;;;;;5027711;28;20316;-75
2022/04/05 12:13:34;;;;;;;2.88;2.65;;;;;;;;;;5024503;28;20287;-76
2022/04/05 12:16:02;;;;;;;3.03;2.72;;;;;;;;;;5026634;28;20214;-75
2022/04/05 12:18:29;;;;;;;3.15;2.38;;;;;;;;;;5029011;28;20218;-75
2022/04/05 12:20:57;;;;;;;2.85;2.65;;;;;;;;;;5027869;28;20227;-76
2022/04/05 12:23:30;;;;;;;4.03;3.20;;;;;;;;;;5022460;28;20677;-75
2022/04/05 12:26:07;;;;;;;2.85;2.65;;;;;;;;;;5028419;28;20299;-75
2022/04/05 12:28:35;;;;;;;2.67;2.47;;;;;;;;;;5016682;28;20207;-75
2022/04/05 12:31:05;;;;;;;2.90;2.70;;;;;;;;;;5022289;28;20580;-75
2022/04/05 12:33:33;;;;;;;2.42;2.22;;;;;;;;;;5018886;28;20659;-75
2022/04/05 12:36:00;;;;;;;2.90;2.63;;;;;;;;;;5026561;28;20218;-74
2022/04/05 12:38:28;;;;;;;3.97;2.80;;;;;;;;;;5016409;28;20198;-75
2022/04/05 12:40:57;;;;;;;3.47;3.25;;;;;;;;;;5028161;28;20195;-75
2022/04/05 12:43:24;;;;;;;3.72;3.42;;;;;;;;;;5025206;28;20195;-75
2022/04/05 12:45:51;;;;;;;3.00;2.70;;;;;;;;;;5025279;28;20199;-74
2022/04/05 12:48:20;;;;;;;3.95;3.35;;;;;;;;;;5014565;28;21956;-74
2022/04/05 12:50:49;;;;;;;3.22;3.00;;;;;;;;;;5019008;28;20206;-76
2022/04/05 12:53:24;;;;;;;2.72;2.53;;;;;;;;;;5016279;28;20203;-76
2022/04/05 12:55:57;;;;;;;3.50;2.70;;;;;;;;;;5015079;28;20203;-75
2022/04/05 12:58:34;;;;;;;4.80;2.70;;;;;;;;;;5018183;28;20206;-76
2022/04/05 13:01:01;;;;;;;2.58;2.38;;;;;;;;;;5017661;28;20200;-77
2022/04/05 13:03:31;;;;;;;2.83;2.63;;;;;;;;;;5019728;28;20199;-76
2022/04/05 13:08:43;;;;;;;3.63;2.80;;;;;;;;;;5019787;28;20329;-76
2022/04/05 13:11:25;;;;;;;3.28;3.00;;;;;;;;;;5017104;28;20667;-76
2022/04/05 13:14:01;;;;;;;2.95;2.60;;;;;;;;;;5020107;28;20199;-76
2022/04/05 13:16:28;;;;;;;3.25;3.05;;;;;;;;;;5023299;28;20207;-74
2022/04/05 13:18:55;;;;;;;2.60;2.40;;;;;;;;;;5020293;28;20208;-74
2022/04/05 13:21:23;;;;;;;3.90;2.75;;;;;;;;;;5019032;28;20195;-73
2022/04/05 13:23:59;;;;;;;3.03;2.70;;;;;;;;;;5024868;28;20266;-75
2022/04/05 13:26:29;;;;;;;2.72;2.53;;;;;;;;;;5019803;28;21031;-76
2022/04/05 13:29:02;;;;;;;3.30;3.00;;;;;;;;;;5025359;28;20242;-75
2022/04/05 13:31:33;;;;;;;2.47;2.28;;;;;;;;;;5027735;28;20199;-74
2022/04/05 13:34:00;;;;;;;3.40;3.10;;;;;;;;;;5029289;28;20195;-76
2022/04/05 13:36:27;;;;;;;2.65;2.45;;;;;;;;;;5024681;28;20262;-77
2022/04/05 13:38:54;;;;;;;3.25;2.95;;;;;;;;;;5027392;28;20658;-76
2022/04/05 13:41:21;;;;;;;2.90;2.70;;;;;;;;;;5020960;28;20199;-76
2022/04/05 13:43:52;;;;;;;3.25;2.85;;;;;;;;;;5019990;28;20211;-74
2022/04/05 13:46:19;;;;;;;2.72;2.45;;;;;;;;;;5026374;28;20720;-76
2022/04/05 13:48:46;;;;;;;2.53;2.28;;;;;;;;;;5031401;28;20199;-74
2022/04/05 13:51:14;;;;;;;3.22;2.92;;;;;;;;;;5036714;28;20659;-75
2022/04/05 13:53:41;;;;;;;3.00;2.70;;;;;;;;;;5030799;28;20226;-76
2022/04/05 13:56:08;;;;;;;3.15;2.95;;;;;;;;;;5025398;28;20202;-73
2022/04/05 13:58:35;;;;;;;2.75;2.55;;;;;;;;;;5023711;28;20195;-76
2022/04/05 14:01:03;;;;;;;3.70;2.38;;;;;;;;;;5027274;28;20214;-76
2022/04/05 14:03:31;;;;;;;2.40;2.17;;;;;;;;;;5029058;28;20540;-76
2022/04/05 14:05:58;;;;;;;3.08;2.78;;;;;;;;;;5027082;28;20211;-76
2022/04/05 14:08:25;;;;;;;2.60;2.40;;;;;;;;;;5027884;28;20227;-76
2022/04/05 14:10:52;;;;;;;5.32;2.65;;;;;;;;;;5027138;28;20211;-77
2022/04/05 14:13:19;;;;;;;3.03;2.72;;;;;;;;;;5018449;28;20206;-76
2022/04/05 14:15:46;;;;;;;3.03;2.13;;;;;;;;;;5024909;28;20223;-77
2022/04/05 14:18:15;;;;;;;3.20;2.85;;;;;;;;;;5028666;28;20222;-75
2022/04/05 14:20:42;;;;;;;2.97;2.78;;;;;;;;;;5023234;28;20196;-75
2022/04/05 14:23:09;;;;;;;3.28;2.97;;;;;;;;;;5028455;28;20322;-75
2022/04/05 14:25:36;;;;;;;3.05;2.85;;;;;;;;;;5023691;28;20258;-74
2022/04/05 14:28:04;;;;;;;4.53;2.83;;;;;;;;;;5020295;28;20235;-73
2022/04/05 14:30:31;;;;;;;3.10;2.90;;;;;;;;;;5026991;28;21525;-75
2022/04/05 14:32:59;;;;;;;5.43;2.75;;;;;;;;;;5029459;28;20199;-75
2022/04/05 14:35:27;;;;;;;3.15;2.95;;;;;;;;;;5024735;28;20278;-75
2022/04/05 14:37:54;;;;;;;3.38;3.08;;;;;;;;;;5013488;28;20231;-75
2022/04/05 14:40:21;;;;;;;2.97;2.78;;;;;;;;;;5027350;28;20203;-75
2022/04/05 14:42:48;;;;;;;2.80;2.60;;;;;;;;;;5026761;28;20203;-74
2022/04/05 14:45:15;;;;;;;2.95;2.75;;;;;;;;;;5026817;28;20195;-74
2022/04/05 14:47:42;;;;;;;3.38;3.17;;;;;;;;;;5027950;28;20253;-74
2022/04/05 14:50:10;;;;;;;3.10;2.90;;;;;;;;;;5028457;28;20555;-74
2022/04/05 14:52:38;;;;;;;2.95;2.72;;;;;;;;;;5024099;28;20211;-73
2022/04/05 14:55:06;;;;;;;3.20;3.00;;;;;;;;;;5026099;28;20897;-75